Time;durP1;ratioP1;P1;durP2;ratioP2;P2;SDS_P1;SDS_P2;PMS_P1;PMS_P2;Temp;Humidity;BMP_temperature;BMP_pressure;BME280_temperature;BME280_humidity;BME280_pressure;Samples;Min_cycle;Max_cycle;Signal;HPM_P1;HPM_P2
2022/07/17 00:01:20;;;;;;;4.08;2.40;;;;;;;28.37;59.15;101435.71;1734945;81;21026;-52
2022/07/17 00:03:46;;;;;;;4.17;2.58;;;;;;;28.35;59.13;101440.34;1735160;81;21484;-48
2022/07/17 00:06:14;;;;;;;2.87;2.15;;;;;;;28.34;59.11;101443.16;1699278;84;21034;-48
2022/07/17 00:08:41;;;;;;;2.62;2.42;;;;;;;28.34;59.05;101446.66;1688144;84;21095;-51
2022/07/17 00:11:07;;;;;;;3.72;2.33;;;;;;;28.34;59.04;101449.34;1696670;83;21022;-48
2022/07/17 00:13:34;;;;;;;2.95;2.35;;;;;;;28.32;59.03;101447.28;1689394;84;20999;-49
2022/07/17 00:16:01;;;;;;;3.20;2.40;;;;;;;28.31;59.09;101450.95;1698986;84;21007;-50
2022/07/17 00:18:28;;;;;;;4.53;2.50;;;;;;;28.30;59.19;101449.24;1735017;81;21281;-50
2022/07/17 00:20:55;;;;;;;4.40;2.95;;;;;;;28.30;59.20;101449.24;1735042;81;21463;-51
2022/07/17 00:23:22;;;;;;;3.27;2.20;;;;;;;28.30;59.21;101445.23;1732009;81;21074;-50
2022/07/17 00:25:49;;;;;;;3.05;2.35;;;;;;;28.29;59.11;101442.21;1733600;81;21531;-49
2022/07/17 00:28:16;;;;;;;3.95;2.90;;;;;;;28.29;59.08;101436.86;1732430;82;20999;-49
2022/07/17 00:30:43;;;;;;;5.35;2.50;;;;;;;28.29;59.08;101436.00;1734938;81;21024;-50
2022/07/17 00:33:10;;;;;;;4.20;2.35;;;;;;;28.28;58.99;101440.98;1735391;81;21007;-49
2022/07/17 00:35:36;;;;;;;2.67;2.47;;;;;;;28.27;59.00;101448.18;1722203;81;21019;-50
2022/07/17 00:38:03;;;;;;;3.67;2.30;;;;;;;28.24;59.02;101445.75;1698490;84;21097;-53
2022/07/17 00:40:30;;;;;;;2.77;2.47;;;;;;;28.24;58.99;101445.75;1699029;83;21073;-51
2022/07/17 00:42:56;;;;;;;3.08;2.60;;;;;;;28.23;58.99;101446.75;1699812;83;21034;-48
2022/07/17 00:45:24;;;;;;;3.58;2.50;;;;;;;28.23;59.01;101449.42;1700576;84;21066;-48
2022/07/17 00:48:02;;;;;;;3.42;2.22;;;;;;;28.23;58.99;101461.95;1735343;81;21042;-50
2022/07/17 00:50:33;;;;;;;2.80;2.60;;;;;;;28.22;58.96;101463.77;1671535;85;21078;-48
2022/07/17 00:52:59;;;;;;;2.80;2.60;;;;;;;28.22;59.03;101470.94;1564744;90;21602;-53
2022/07/17 00:55:26;;;;;;;3.67;2.42;;;;;;;28.21;59.05;101467.44;1585450;90;21067;-49
2022/07/17 00:57:54;;;;;;;3.75;2.92;;;;;;;28.21;59.08;101466.09;1587021;90;21550;-50
2022/07/17 01:00:21;;;;;;;2.72;2.30;;;;;;;28.21;59.16;101463.42;1530141;92;21053;-51
2022/07/17 01:02:51;;;;;;;3.00;2.70;;;;;;;28.22;59.26;101458.41;1584084;90;21081;-48
2022/07/17 01:05:18;;;;;;;3.47;2.62;;;;;;;28.21;59.29;101444.69;1584406;90;21087;-48
2022/07/17 01:07:46;;;;;;;4.50;2.62;;;;;;;28.22;59.35;101449.05;1584411;90;21106;-49
2022/07/17 01:10:12;;;;;;;3.02;2.50;;;;;;;28.22;59.39;101445.03;1585361;90;21109;-52
2022/07/17 01:12:40;;;;;;;2.87;2.50;;;;;;;28.22;59.48;101428.98;1585543;90;21103;-50
2022/07/17 01:15:10;;;;;;;3.50;2.55;;;;;;;28.21;59.49;101421.94;1585655;90;21090;-48
2022/07/17 01:17:37;;;;;;;2.90;2.55;;;;;;;28.23;59.48;101426.67;1556371;92;21106;-50
2022/07/17 01:20:07;;;;;;;4.10;2.40;;;;;;;28.23;59.61;101433.37;1586531;90;21112;-50
2022/07/17 01:22:45;;;;;;;3.08;2.60;;;;;;;28.22;59.66;101433.47;1555086;92;21543;-49
2022/07/17 01:25:12;;;;;;;2.72;2.40;;;;;;;28.23;59.61;101433.84;1585948;90;21121;-51
2022/07/17 01:27:40;;;;;;;3.05;2.55;;;;;;;28.23;59.61;101432.03;1586519;90;21071;-50
2022/07/17 01:30:09;;;;;;;5.17;2.67;;;;;;;28.22;59.67;101426.30;1556984;92;21125;-48
2022/07/17 01:32:38;;;;;;;3.58;2.55;;;;;;;28.23;59.69;101425.81;1532101;93;21098;-48
2022/07/17 01:35:08;;;;;;;3.10;2.47;;;;;;;28.23;59.74;101417.31;1560041;91;21088;-51
2022/07/17 01:37:37;;;;;;;2.52;2.30;;;;;;;28.23;59.68;101413.30;1545383;92;21569;-50
2022/07/17 01:40:06;;;;;;;2.58;2.37;;;;;;;28.24;59.66;101401.59;1531677;92;21597;-49
2022/07/17 01:42:33;;;;;;;2.65;2.25;;;;;;;28.24;59.62;101400.25;1586381;90;21042;-48
2022/07/17 01:45:00;;;;;;;3.67;2.45;;;;;;;28.25;59.59;101405.98;1556435;92;21126;-49
2022/07/17 01:47:27;;;;;;;2.95;2.40;;;;;;;28.25;59.53;101408.66;1640813;86;21022;-51
2022/07/17 01:49:56;;;;;;;4.15;2.85;;;;;;;28.25;59.46;101410.48;1699594;82;21043;-50
2022/07/17 01:52:24;;;;;;;3.87;2.80;;;;;;;28.24;59.42;101413.64;1733437;81;21003;-48
2022/07/17 01:54:51;;;;;;;7.12;2.83;;;;;;;28.24;59.46;101408.28;1733551;81;21019;-51
2022/07/17 01:57:18;;;;;;;6.15;3.50;;;;;;;28.24;59.38;101410.95;1735457;81;20990;-48
2022/07/17 01:59:45;;;;;;;7.37;3.20;;;;;;;28.24;59.34;101418.98;1736514;81;21019;-50
2022/07/17 02:02:12;;;;;;;6.15;3.20;;;;;;;28.23;59.33;101415.97;1700923;84;21490;-50
2022/07/17 02:07:08;;;;;;;4.90;3.10;;;;;;;28.23;59.25;101417.31;1688375;85;21061;-49
2022/07/17 02:09:35;;;;;;;4.83;3.37;;;;;;;28.22;59.27;101423.63;1686581;85;21017;-49
2022/07/17 02:12:03;;;;;;;6.22;2.58;;;;;;;28.23;59.30;101417.31;1686106;85;21593;-48
2022/07/17 02:14:30;;;;;;;3.75;2.50;;;;;;;28.22;59.29;101412.92;1683328;85;21058;-50
2022/07/17 02:16:57;;;;;;;4.42;2.62;;;;;;;28.23;59.32;101416.45;1677571;85;20999;-48
2022/07/17 02:19:24;;;;;;;8.15;2.90;;;;;;;28.22;59.32;101410.24;1683686;85;20990;-48
2022/07/17 02:21:52;;;;;;;5.35;2.67;;;;;;;28.23;59.34;101414.63;1683340;85;21589;-50
2022/07/17 02:24:20;;;;;;;2.83;2.50;;;;;;;28.22;59.40;101412.92;1683667;85;21026;-50
2022/07/17 02:26:46;;;;;;;3.12;2.60;;;;;;;28.23;59.46;101409.28;1683525;85;21507;-53
2022/07/17 02:29:13;;;;;;;4.90;3.10;;;;;;;28.23;59.53;101405.27;1683448;85;21038;-55
2022/07/17 02:31:40;;;;;;;3.80;2.70;;;;;;;28.23;59.53;101399.05;1683478;85;21062;-50
2022/07/17 02:34:07;;;;;;;3.17;2.87;;;;;;;28.22;59.54;101403.55;1683614;85;21074;-50
2022/07/17 02:36:34;;;;;;;4.30;2.77;;;;;;;28.23;59.64;101407.08;1683707;85;21030;-49
2022/07/17 02:39:01;;;;;;;2.95;2.70;;;;;;;28.21;59.77;101419.27;1683409;85;21057;-51
2022/07/17 02:41:28;;;;;;;3.08;2.60;;;;;;;28.19;59.84;101415.36;1683481;84;21034;-48
2022/07/17 02:43:54;;;;;;;4.17;2.85;;;;;;;28.19;59.90;101414.53;1671496;85;21046;-49
2022/07/17 02:46:22;;;;;;;3.85;2.67;;;;;;;28.18;59.96;101415.50;1683496;85;21108;-50
2022/07/17 02:48:49;;;;;;;3.55;2.52;;;;;;;28.19;59.98;101415.88;1683753;85;21006;-50
2022/07/17 02:51:15;;;;;;;3.05;2.60;;;;;;;28.20;60.05;101417.55;1683733;85;21038;-50
2022/07/17 02:53:42;;;;;;;4.15;3.10;;;;;;;28.19;60.08;101415.88;1683598;85;21086;-48
2022/07/17 02:56:09;;;;;;;3.85;2.83;;;;;;;28.20;60.05;101417.55;1683758;85;21494;-49
2022/07/17 02:58:36;;;;;;;3.17;2.85;;;;;;;28.21;60.05;101417.93;1683334;84;21002;-49
2022/07/17 03:01:03;;;;;;;4.72;2.90;;;;;;;28.23;60.06;101417.31;1683743;85;21010;-54
2022/07/17 03:03:29;;;;;;;3.33;2.67;;;;;;;28.22;60.12;101415.59;1689747;84;21042;-49
2022/07/17 03:05:56;;;;;;;3.80;2.80;;;;;;;28.24;60.10;101412.30;1724832;81;21057;-48
2022/07/17 03:08:23;;;;;;;4.05;2.65;;;;;;;28.25;60.11;101410.00;1731621;81;21085;-48
2022/07/17 03:10:51;;;;;;;3.47;3.10;;;;;;;28.27;60.11;101413.39;1731689;81;21069;-52
2022/07/17 03:13:17;;;;;;;4.12;2.77;;;;;;;28.28;60.05;101415.07;1738829;81;21160;-48
2022/07/17 03:15:44;;;;;;;4.20;2.80;;;;;;;28.07;60.71;101419.08;1733530;81;21536;-50
2022/07/17 03:18:11;;;;;;;4.17;2.67;;;;;;;28.06;60.80;101424.56;1733378;82;21070;-49
2022/07/17 03:20:38;;;;;;;4.12;2.90;;;;;;;28.07;60.84;101419.56;1733389;81;20984;-52
2022/07/17 03:23:05;;;;;;;3.72;2.80;;;;;;;28.06;60.89;101417.88;1726679;81;21031;-50
2022/07/17 03:25:31;;;;;;;2.70;2.50;;;;;;;28.08;60.93;101419.94;1731720;81;21496;-50
2022/07/17 03:27:58;;;;;;;2.85;2.40;;;;;;;28.10;60.97;101416.64;1732843;81;21491;-49
2022/07/17 03:30:25;;;;;;;3.35;2.30;;;;;;;28.12;60.99;101417.36;1700849;84;21452;-50
2022/07/17 03:32:52;;;;;;;2.70;2.50;;;;;;;28.14;61.08;101422.09;1696746;84;21566;-49
2022/07/17 03:35:19;;;;;;;2.80;2.60;;;;;;;28.18;61.08;101420.84;1701037;84;21006;-49
2022/07/17 03:37:47;;;;;;;3.47;2.40;;;;;;;28.22;61.15;101424.11;1700975;84;21026;-49
2022/07/17 03:40:14;;;;;;;2.87;2.10;;;;;;;28.27;61.32;101431.27;1698516;84;21031;-49
2022/07/17 03:42:41;;;;;;;2.42;2.22;;;;;;;28.33;61.20;101436.95;1698591;83;21053;-50
2022/07/17 03:45:10;;;;;;;4.28;2.52;;;;;;;28.44;60.70;101434.19;1692091;84;21537;-50
2022/07/17 03:47:37;;;;;;;3.20;2.45;;;;;;;28.64;60.14;101438.73;1697015;84;21057;-48
2022/07/17 03:50:06;;;;;;;3.55;2.65;;;;;;;28.92;59.11;101442.52;1695872;84;21014;-52
2022/07/17 03:52:33;;;;;;;2.30;2.17;;;;;;;29.32;57.88;101450.61;1698149;84;21439;-48
2022/07/17 03:55:00;;;;;;;3.75;2.85;;;;;;;29.91;55.13;101447.42;1698066;82;21521;-51
2022/07/17 03:57:27;;;;;;;4.03;3.12;;;;;;;30.36;52.96;101459.30;1697244;84;21034;-53
2022/07/17 03:59:54;;;;;;;6.10;2.98;;;;;;;30.52;51.94;101455.52;1732115;81;21031;-49
2022/07/17 04:02:22;;;;;;;6.00;3.25;;;;;;;30.61;50.79;101452.95;1733465;81;21054;-50
2022/07/17 04:04:49;;;;;;;4.80;3.30;;;;;;;30.53;49.86;101454.54;1700096;84;21006;-52
2022/07/17 04:09:50;;;;;;;4.20;3.60;;;;;;;30.15;49.73;101461.25;1703230;83;21047;-50
2022/07/17 04:12:17;;;;;;;6.10;3.87;;;;;;;30.08;49.82;101466.00;1660225;86;21570;-49
2022/07/17 04:14:45;;;;;;;4.10;3.70;;;;;;;29.86;50.26;101467.62;1652251;87;21038;-49
2022/07/17 04:17:11;;;;;;;4.85;3.33;;;;;;;29.66;50.65;101473.41;1652319;87;21042;-54
2022/07/17 04:19:39;;;;;;;4.10;3.70;;;;;;;29.47;50.88;101470.70;1652514;87;21042;-50
2022/07/17 04:22:06;;;;;;;3.77;3.40;;;;;;;29.29;51.19;101464.27;1651286;87;21010;-48
2022/07/17 04:24:33;;;;;;;4.78;3.60;;;;;;;29.13;51.73;101462.56;1652344;87;21531;-48
2022/07/17 04:27:00;;;;;;;6.37;3.90;;;;;;;28.94;52.50;101464.67;1652233;87;21090;-52
2022/07/17 04:29:27;;;;;;;3.98;3.62;;;;;;;28.78;53.52;101464.31;1646742;87;21038;-49
2022/07/17 04:31:55;;;;;;;6.50;3.60;;;;;;;28.65;54.50;101458.30;1652322;87;21530;-52
2022/07/17 04:34:21;;;;;;;4.83;3.85;;;;;;;28.49;55.72;101457.90;1652458;87;21046;-50
2022/07/17 04:36:50;;;;;;;4.37;3.62;;;;;;;28.36;56.24;101456.75;1683586;84;21118;-51
2022/07/17 04:39:17;;;;;;;6.28;3.50;;;;;;;28.24;55.42;101459.61;1683994;84;21031;-49
2022/07/17 04:41:44;;;;;;;4.83;3.65;;;;;;;28.17;53.97;101467.34;1683730;84;21028;-48
2022/07/17 04:44:12;;;;;;;5.08;3.60;;;;;;;28.02;51.42;101468.61;1683980;85;21047;-48
2022/07/17 04:46:39;;;;;;;8.05;3.85;;;;;;;27.91;49.71;101472.62;1707065;82;21062;-49
2022/07/17 04:49:06;;;;;;;4.53;3.50;;;;;;;27.96;48.32;101472.66;1703842;84;21507;-50
2022/07/17 04:51:33;;;;;;;4.58;3.40;;;;;;;27.73;47.45;101479.48;1697142;84;21018;-50
2022/07/17 04:53:59;;;;;;;4.92;3.15;;;;;;;27.59;47.42;101479.77;1725063;81;21059;-49
2022/07/17 04:56:26;;;;;;;5.62;3.12;;;;;;;27.64;47.07;101474.88;1700322;84;21015;-48
2022/07/17 04:58:53;;;;;;;6.42;3.45;;;;;;;27.46;47.46;101479.05;1699130;84;21530;-49
2022/07/17 05:01:19;;;;;;;6.22;3.40;;;;;;;27.59;47.07;101485.11;1699074;83;21066;-52
2022/07/17 05:03:46;;;;;;;4.05;3.40;;;;;;;27.57;46.82;101493.75;1734040;82;21022;-48
2022/07/17 05:06:12;;;;;;;4.15;3.10;;;;;;;27.54;47.14;101492.64;1734622;81;21087;-51
2022/07/17 05:08:39;;;;;;;5.97;2.90;;;;;;;27.52;47.22;101501.28;1700540;84;20995;-52
2022/07/17 05:11:07;;;;;;;4.78;3.15;;;;;;;27.54;47.07;101508.69;1698725;84;21018;-53
2022/07/17 05:13:35;;;;;;;5.10;3.15;;;;;;;27.52;46.60;101508.81;1690468;83;21042;-51
2022/07/17 05:16:02;;;;;;;6.83;3.22;;;;;;;27.50;46.06;101511.24;1699119;84;21540;-50
2022/07/17 05:18:30;;;;;;;6.50;3.50;;;;;;;27.46;45.91;101503.97;1700308;84;21066;-51
2022/07/17 05:20:56;;;;;;;4.50;3.20;;;;;;;27.45;46.17;101506.77;1730559;82;21071;-48
2022/07/17 05:23:23;;;;;;;4.65;3.10;;;;;;;27.44;45.96;101509.06;1721916;81;21058;-49
2022/07/17 05:25:51;;;;;;;5.65;3.00;;;;;;;27.41;46.12;101513.34;1727981;81;21475;-50
2022/07/17 05:28:17;;;;;;;3.80;3.40;;;;;;;27.42;46.10;101520.36;1730630;82;21028;-48
2022/07/17 05:30:44;;;;;;;5.72;3.37;;;;;;;27.42;46.21;101516.36;1700452;84;21042;-49
2022/07/17 05:33:11;;;;;;;4.15;3.20;;;;;;;27.45;45.92;101522.81;1734862;81;20975;-50
2022/07/17 05:35:37;;;;;;;3.27;2.98;;;;;;;27.47;46.17;101531.55;1731949;81;21004;-51
2022/07/17 05:38:06;;;;;;;4.35;3.02;;;;;;;27.47;46.18;101528.88;1731474;81;21031;-49
2022/07/17 05:40:33;;;;;;;3.65;3.10;;;;;;;27.47;46.00;101534.23;1731758;81;21050;-49
2022/07/17 05:43:00;;;;;;;3.33;3.00;;;;;;;27.48;46.26;101535.91;1731832;81;21023;-50
2022/07/17 05:45:26;;;;;;;4.78;3.10;;;;;;;27.48;46.50;101539.44;1731149;81;21499;-49
2022/07/17 05:47:53;;;;;;;3.33;3.02;;;;;;;27.50;46.42;101544.66;1729390;81;21010;-48
2022/07/17 05:50:20;;;;;;;4.45;3.00;;;;;;;27.51;46.24;101548.57;1733950;82;20989;-49
2022/07/17 05:52:46;;;;;;;3.08;2.77;;;;;;;27.51;46.00;101546.38;1738019;81;21066;-48
2022/07/17 05:55:13;;;;;;;3.10;2.80;;;;;;;27.53;46.11;101548.44;1731529;81;21003;-48
2022/07/17 05:57:40;;;;;;;7.42;3.05;;;;;;;27.54;46.26;101554.13;1734936;81;21054;-50
2022/07/17 06:00:08;;;;;;;3.87;2.98;;;;;;;27.57;46.16;101548.55;1700518;83;21045;-48
2022/07/17 06:02:41;;;;;;;4.85;2.85;;;;;;;27.62;45.82;101551.69;1700248;84;21507;-50
2022/07/17 06:05:08;;;;;;;7.25;2.90;;;;;;;27.65;45.40;101552.80;1697894;83;21510;-53
2022/07/17 06:07:37;;;;;;;3.33;3.02;;;;;;;27.67;45.61;101556.20;1699620;83;21550;-51
2022/07/17 06:10:06;;;;;;;3.22;2.85;;;;;;;27.71;45.41;101552.30;1699984;83;21068;-49
2022/07/17 06:12:32;;;;;;;6.40;2.98;;;;;;;27.75;45.42;101557.77;1700713;83;21463;-49
2022/07/17 06:14:59;;;;;;;5.22;2.98;;;;;;;27.68;45.70;101557.41;1688206;84;21030;-50
2022/07/17 06:17:28;;;;;;;5.90;3.08;;;;;;;27.75;45.50;101563.11;1698334;84;21038;-49
2022/07/17 06:19:55;;;;;;;3.25;2.95;;;;;;;27.78;45.29;101561.55;1698483;83;21088;-51
2022/07/17 06:22:21;;;;;;;4.75;2.75;;;;;;;27.81;45.12;101563.95;1729126;81;21059;-53
2022/07/17 06:24:49;;;;;;;5.37;3.42;;;;;;;27.96;44.88;101560.08;1731221;81;21034;-50
2022/07/17 06:27:18;;;;;;;4.45;3.17;;;;;;;27.98;44.49;101554.11;1731692;81;22200;-49
2022/07/17 06:29:46;;;;;;;3.27;2.60;;;;;;;27.96;44.61;101557.40;1732049;81;21015;-49
2022/07/17 06:32:13;;;;;;;3.50;2.70;;;;;;;27.92;44.23;101558.12;1734211;81;21034;-50
2022/07/17 06:34:39;;;;;;;3.33;2.47;;;;;;;27.89;44.01;101565.52;1700350;84;21050;-50
2022/07/17 06:37:06;;;;;;;3.47;3.17;;;;;;;27.84;44.08;101556.52;1699148;84;21061;-48
2022/07/17 06:39:33;;;;;;;4.00;3.15;;;;;;;27.85;44.68;101565.41;1698704;84;21007;-49
2022/07/17 06:42:00;;;;;;;4.15;2.80;;;;;;;27.84;44.58;101567.73;1734096;82;21026;-52
2022/07/17 06:44:27;;;;;;;3.22;2.92;;;;;;;27.85;44.29;101565.41;1700835;83;21074;-50
2022/07/17 06:46:54;;;;;;;3.12;2.75;;;;;;;27.87;44.24;101567.47;1734509;81;21015;-49
2022/07/17 06:49:21;;;;;;;4.62;2.70;;;;;;;27.88;43.98;101570.01;1699264;84;21008;-54
2022/07/17 06:51:48;;;;;;;3.65;2.70;;;;;;;27.90;43.86;101572.58;1697608;84;21029;-48
2022/07/17 06:54:16;;;;;;;4.22;2.90;;;;;;;27.92;44.11;101567.95;1697264;84;21553;-49
2022/07/17 06:56:44;;;;;;;2.65;2.45;;;;;;;27.98;44.28;101566.16;1697948;84;21054;-49
2022/07/17 06:59:11;;;;;;;5.83;3.00;;;;;;;28.06;43.27;101574.39;1697558;83;21015;-51
2022/07/17 07:01:38;;;;;;;4.72;2.85;;;;;;;28.13;43.40;101574.27;1699651;83;21034;-50
2022/07/17 07:04:06;;;;;;;3.42;2.70;;;;;;;28.16;43.41;101574.86;1700743;84;21022;-50
2022/07/17 07:06:33;;;;;;;4.50;2.65;;;;;;;28.29;42.98;101581.39;1734779;81;21015;-52
2022/07/17 07:09:00;;;;;;;3.35;2.90;;;;;;;28.39;42.57;101582.80;1738258;81;21047;-50
2022/07/17 07:11:27;;;;;;;2.90;2.60;;;;;;;28.44;42.17;101594.82;1733821;81;21051;-48
2022/07/17 07:13:53;;;;;;;3.35;2.65;;;;;;;28.45;42.18;101597.88;1698060;83;21548;-49
2022/07/17 07:16:20;;;;;;;2.75;2.52;;;;;;;28.46;41.99;101604.09;1704230;83;21019;-51
2022/07/17 07:18:47;;;;;;;2.45;2.25;;;;;;;28.48;42.41;101601.62;1693371;84;21491;-53
2022/07/17 07:21:14;;;;;;;3.15;2.85;;;;;;;28.55;42.08;101608.17;1696497;84;21010;-49
2022/07/17 07:23:41;;;;;;;2.90;2.40;;;;;;;28.63;42.35;101608.41;1694178;84;21534;-49
2022/07/17 07:26:08;;;;;;;3.52;2.83;;;;;;;28.72;42.09;101608.99;1698056;84;21522;-49
2022/07/17 07:28:36;;;;;;;3.65;2.35;;;;;;;28.86;41.81;101608.67;1730963;81;21563;-50
2022/07/17 07:31:03;;;;;;;3.08;2.83;;;;;;;29.00;41.22;101608.00;1733398;81;21031;-53
2022/07/17 07:33:30;;;;;;;3.55;2.70;;;;;;;29.12;41.20;101604.27;1734199;81;21075;-50
2022/07/17 07:35:59;;;;;;;2.90;2.30;;;;;;;29.23;41.46;101610.42;1734288;81;21035;-49
2022/07/17 07:38:25;;;;;;;7.08;2.58;;;;;;;29.31;41.64;101605.73;1730621;82;21031;-52
2022/07/17 07:40:52;;;;;;;3.90;2.40;;;;;;;29.29;41.49;101599.65;1734490;81;21023;-50
2022/07/17 07:43:20;;;;;;;2.47;2.20;;;;;;;29.25;41.62;101610.28;1732066;81;21047;-49
2022/07/17 07:45:46;;;;;;;2.72;2.50;;;;;;;29.22;41.86;101613.24;1727102;81;21066;-48
2022/07/17 07:48:13;;;;;;;3.15;2.37;;;;;;;29.16;42.13;101613.77;1731429;81;21059;-51
2022/07/17 07:50:40;;;;;;;2.92;2.62;;;;;;;29.10;42.28;101609.73;1734314;81;21142;-50
2022/07/17 07:53:09;;;;;;;4.78;2.55;;;;;;;29.06;42.49;101618.20;1700678;84;21002;-49
2022/07/17 07:55:37;;;;;;;4.78;2.33;;;;;;;29.04;42.60;101614.80;1734952;81;21055;-50
2022/07/17 07:58:10;;;;;;;3.27;2.50;;;;;;;29.04;42.74;101612.12;1698127;84;21577;-49
2022/07/17 08:00:39;;;;;;;2.70;2.50;;;;;;;29.02;42.28;101619.44;1697997;84;21010;-49
2022/07/17 08:03:06;;;;;;;5.40;3.10;;;;;;;29.00;42.17;101610.69;1733208;81;21051;-51
2022/07/17 08:05:33;;;;;;;2.42;2.22;;;;;;;28.96;42.16;101610.93;1729766;82;21038;-50
2022/07/17 08:08:00;;;;;;;4.50;2.50;;;;;;;28.98;41.07;101615.66;1737198;81;21023;-50
2022/07/17 08:10:28;;;;;;;2.50;2.30;;;;;;;28.97;40.91;101620.65;1699484;84;21105;-49
2022/07/17 08:12:55;;;;;;;4.67;2.47;;;;;;;29.01;41.15;101621.74;1698486;83;21049;-51
2022/07/17 08:15:23;;;;;;;3.75;2.33;;;;;;;29.03;40.84;101614.42;1690750;84;21010;-51
2022/07/17 08:17:52;;;;;;;2.25;1.90;;;;;;;29.06;40.63;101620.88;1696756;84;21050;-50
2022/07/17 08:20:20;;;;;;;3.15;2.10;;;;;;;29.10;40.83;101617.77;1725262;81;21035;-50
2022/07/17 08:22:48;;;;;;;2.22;2.02;;;;;;;29.13;40.42;101609.97;1731708;81;21071;-49
2022/07/17 08:25:14;;;;;;;2.22;2.02;;;;;;;29.16;40.24;101616.45;1732648;81;21066;-50
2022/07/17 08:27:42;;;;;;;2.10;1.75;;;;;;;29.17;39.63;101610.09;1734575;81;21003;-49
2022/07/17 08:30:12;;;;;;;2.12;1.67;;;;;;;29.17;38.65;101618.14;1700757;84;21109;-51
2022/07/17 08:32:41;;;;;;;4.20;1.53;;;;;;;29.18;39.77;101620.67;1699217;84;21025;-50
2022/07/17 08:35:09;;;;;;;5.60;1.57;;;;;;;29.28;39.50;101622.09;1697919;84;21066;-49
2022/07/17 08:37:45;;;;;;;3.52;1.95;;;;;;;29.37;38.08;101615.91;1699258;84;21034;-51
2022/07/17 08:40:25;;;;;;;4.80;1.85;;;;;;;29.43;37.43;101626.14;1684929;84;21026;-50
2022/07/17 08:42:53;;;;;;;3.17;1.85;;;;;;;29.50;36.52;101626.80;1651176;85;21002;-53
2022/07/17 08:45:20;;;;;;;2.40;1.40;;;;;;;29.57;37.10;101627.13;1686282;83;21071;-50
2022/07/17 08:47:47;;;;;;;3.50;1.52;;;;;;;29.64;36.47;101626.92;1687122;83;21156;-54
2022/07/17 08:50:14;;;;;;;2.77;1.52;;;;;;;29.70;36.16;101615.65;1686367;83;21067;-53
2022/07/17 08:52:42;;;;;;;2.12;1.65;;;;;;;29.78;36.32;101623.08;1683896;84;21028;-49
2022/07/17 08:55:12;;;;;;;1.60;1.45;;;;;;;29.84;35.60;101622.05;1676378;83;21563;-49
2022/07/17 08:57:41;;;;;;;2.03;1.30;;;;;;;29.90;34.93;101629.55;1635077;87;21090;-50
2022/07/17 09:00:11;;;;;;;2.02;1.30;;;;;;;29.97;34.07;101626.66;1631618;87;21079;-49
2022/07/17 09:02:39;;;;;;;1.90;1.22;;;;;;;30.03;33.84;101627.45;1637394;87;21107;-49
2022/07/17 09:05:08;;;;;;;2.05;1.40;;;;;;;30.09;32.90;101624.21;1636894;87;21039;-50
2022/07/17 09:07:45;;;;;;;1.67;1.22;;;;;;;30.13;32.98;101631.00;1640837;87;21011;-51
2022/07/17 09:10:12;;;;;;;1.40;1.10;;;;;;;30.20;33.46;101628.62;1632621;86;21082;-50
2022/07/17 09:12:39;;;;;;;4.30;1.10;;;;;;;30.26;33.50;101626.23;1639672;86;21547;-50
2022/07/17 09:15:17;;;;;;;1.20;1.10;;;;;;;30.30;31.89;101635.73;1638593;87;21038;-51
2022/07/17 09:17:55;;;;;;;1.98;1.30;;;;;;;30.33;31.69;101638.16;1643732;87;21578;-51
2022/07/17 09:20:22;;;;;;;2.25;1.30;;;;;;;30.32;31.95;101636.45;1639285;87;21070;-48
2022/07/17 09:23:03;;;;;;;2.75;1.30;;;;;;;30.29;31.67;101641.23;1646281;86;21031;-48
2022/07/17 09:25:43;;;;;;;1.67;1.20;;;;;;;30.29;32.15;101636.74;1643916;86;21588;-52
2022/07/17 09:28:13;;;;;;;1.52;1.00;;;;;;;30.36;31.70;101644.58;1643988;86;21026;-50
2022/07/17 09:30:43;;;;;;;1.35;1.05;;;;;;;30.42;30.93;101641.82;1643306;86;21054;-51
2022/07/17 09:33:21;;;;;;;2.17;1.52;;;;;;;30.47;31.58;101641.78;1640985;86;21007;-52
2022/07/17 09:35:53;;;;;;;1.90;1.22;;;;;;;30.55;32.18;101645.09;1641225;86;21105;-49
2022/07/17 09:38:35;;;;;;;3.08;1.60;;;;;;;30.64;31.67;101650.13;1617207;87;21562;-51
2022/07/17 09:41:15;;;;;;;2.05;1.07;;;;;;;30.65;31.42;101651.81;1606997;88;21626;-50
2022/07/17 09:43:53;;;;;;;1.00;1.00;;;;;;;30.71;31.26;101651.27;1608524;88;21586;-50
2022/07/17 09:46:28;;;;;;;2.08;1.32;;;;;;;30.77;30.58;101653.39;1570199;90;21059;-51
2022/07/17 09:49:01;;;;;;;1.70;1.20;;;;;;;30.87;31.07;101655.61;1571177;90;21595;-52
2022/07/17 09:51:33;;;;;;;3.30;1.22;;;;;;;30.93;31.04;101657.73;1571285;90;21137;-49
2022/07/17 09:54:02;;;;;;;1.20;1.10;;;;;;;30.97;31.17;101664.52;1590135;88;21022;-51
2022/07/17 09:56:31;;;;;;;2.67;1.10;;;;;;;30.97;30.40;101663.17;1587476;89;21544;-50
2022/07/17 09:59:12;;;;;;;2.90;1.45;;;;;;;30.99;30.75;101662.53;1588984;89;21103;-49
2022/07/17 10:01:41;;;;;;;2.75;2.00;;;;;;;31.02;30.82;101670.30;1584970;90;21092;-50
2022/07/17 10:04:09;;;;;;;4.08;1.60;;;;;;;31.03;31.00;101663.94;1570430;90;21500;-50
2022/07/17 10:06:36;;;;;;;2.60;1.30;;;;;;;31.06;30.86;101666.33;1589952;89;21082;-51
2022/07/17 10:09:05;;;;;;;2.98;1.30;;;;;;;31.10;30.33;101668.59;1588022;89;21148;-50
2022/07/17 10:11:35;;;;;;;4.40;1.47;;;;;;;31.12;31.04;101672.47;1588770;89;21078;-49
2022/07/17 10:14:10;;;;;;;1.80;1.17;;;;;;;31.14;30.94;101670.00;1590886;89;21057;-49
2022/07/17 10:16:39;;;;;;;1.50;1.40;;;;;;;31.17;31.27;101668.88;1591959;89;21077;-51
2022/07/17 10:19:23;;;;;;;3.05;1.45;;;;;;;31.17;30.32;101672.91;1592859;88;21042;-51
2022/07/17 10:22:01;;;;;;;1.42;1.22;;;;;;;31.19;30.60;101670.92;1573633;88;21138;-52
2022/07/17 10:24:29;;;;;;;3.55;1.40;;;;;;;31.19;31.35;101666.89;1586373;88;21116;-49
2022/07/17 10:26:56;;;;;;;3.70;1.32;;;;;;;31.19;31.27;101673.61;1592831;87;21126;-50
2022/07/17 10:29:37;;;;;;;1.27;1.15;;;;;;;31.18;30.84;101664.69;1589259;89;21118;-49
2022/07/17 10:32:09;;;;;;;2.60;1.22;;;;;;;31.17;30.74;101664.84;1589881;89;21046;-49
2022/07/17 10:34:56;;;;;;;2.35;1.35;;;;;;;31.15;30.54;101665.48;1592244;89;21106;-50
2022/07/17 10:37:40;;;;;;;2.77;1.47;;;;;;;31.15;30.68;101658.75;1616917;86;21038;-54
2022/07/17 10:40:18;;;;;;;3.60;1.42;;;;;;;31.16;29.94;101666.67;1646374;86;21067;-50
2022/07/17 10:43:02;;;;;;;2.08;1.35;;;;;;;31.15;29.40;101666.33;1702588;82;21610;-50
2022/07/17 10:45:38;;;;;;;1.82;1.20;;;;;;;31.14;29.18;101666.48;1671331;85;21521;-52
2022/07/17 10:48:13;;;;;;;2.62;1.42;;;;;;;31.15;30.00;101669.02;1628372;88;21094;-50
2022/07/17 10:50:46;;;;;;;1.42;1.30;;;;;;;31.18;29.65;101667.89;1635750;87;21125;-50
2022/07/17 10:55:57;;;;;;;1.98;1.25;;;;;;;31.21;29.75;101673.83;1564600;90;21127;-50
2022/07/17 10:58:40;;;;;;;1.22;1.12;;;;;;;31.25;29.46;101677.06;1564885;90;21574;-53
2022/07/17 11:01:17;;;;;;;1.35;1.25;;;;;;;31.32;29.15;101675.50;1564555;90;21074;-54
2022/07/17 11:03:53;;;;;;;1.80;1.17;;;;;;;31.38;28.51;101677.61;1564792;90;21135;-52
2022/07/17 11:06:35;;;;;;;4.70;1.50;;;;;;;31.45;28.25;101673.89;1564692;90;21677;-50
2022/07/17 11:09:12;;;;;;;1.92;1.50;;;;;;;31.51;29.15;101674.13;1522281;93;21073;-51
2022/07/17 11:11:49;;;;;;;1.60;1.50;;;;;;;31.55;28.98;101671.48;1523779;93;21199;-51
2022/07/17 11:14:24;;;;;;;1.45;1.25;;;;;;;31.59;28.50;101675.61;1517504;93;21143;-51
2022/07/17 11:16:57;;;;;;;1.50;1.32;;;;;;;31.66;28.63;101678.54;1515256;94;21700;-50
2022/07/17 11:19:43;;;;;;;1.55;1.45;;;;;;;31.69;28.64;101675.57;1515596;94;21097;-50
2022/07/17 11:22:12;;;;;;;2.50;1.42;;;;;;;31.71;29.13;101674.44;1449145;97;21594;-49
2022/07/17 11:24:45;;;;;;;3.22;1.32;;;;;;;31.75;28.74;101670.45;1449356;98;21209;-48
2022/07/17 11:27:22;;;;;;;1.67;1.22;;;;;;;31.78;28.79;101670.14;1426571;99;21140;-49
2022/07/17 11:29:50;;;;;;;1.65;1.10;;;;;;;31.82;29.16;101663.47;1429646;98;21637;-49
2022/07/17 11:32:16;;;;;;;3.27;1.30;;;;;;;31.86;28.85;101669.42;1464552;96;21118;-52
2022/07/17 11:34:43;;;;;;;1.75;1.22;;;;;;;31.89;28.61;101672.66;1469386;97;21567;-49
2022/07/17 11:37:10;;;;;;;1.95;1.60;;;;;;;31.94;29.15;101669.55;1469323;98;21110;-51
2022/07/17 11:39:45;;;;;;;2.72;1.40;;;;;;;31.98;29.09;101676.34;1469077;97;21091;-51